Terminal Aerodrome Forecast
Issued by NWS

Home | Current Version | Previous Version | Text Only | Print | Product List | Glossary On
Versions: 1 2 3 4 5 6 7 8 9 10 11 12 13 14 15
000
FTUS46 KHNX 212330
TAFFAT
TAF
KFAT 212330Z 2200/2224 VRB03KT 6SM HZ SCT200
     FM220800 VRB03KT 4SM HZ BR FEW250
     FM221200 00000KT 3SM BR SKC
      TEMPO 2212/2216 1 1/2SM BR
     FM221700 VRB04KT 4SM HZ SKC=

USA.gov is the U.S. government's official web portal to all federal, state and local government web resources and services.